Time;durP1;ratioP1;P1;durP2;ratioP2;P2;SDS_P1;SDS_P2;PMS_P1;PMS_P2;Temp;Humidity;BMP_temperature;BMP_pressure;BME280_temperature;BME280_humidity;BME280_pressure;Samples;Min_cycle;Max_cycle;Signal;HPM_P1;HPM_P2
2021/06/21 00:00:42;;;;;;;;;5.75;4.75;;;;;22.67;77.63;99811.50;4899301;29;45645;-80
2021/06/21 00:03:07;;;;;;;;;4.50;4.00;;;;;22.62;77.06;99803.28;4900232;29;45716;-80
2021/06/21 00:05:33;;;;;;;;;4.50;4.50;;;;;22.64;77.08;99799.34;4900313;29;45665;-80
2021/06/21 00:07:59;;;;;;;;;4.00;4.00;;;;;22.57;77.67;99788.69;4899987;29;46226;-80
2021/06/21 00:13:47;;;;;;;;;4.25;4.00;;;;;22.68;76.95;99805.09;4899893;29;45606;-80
2021/06/21 00:16:13;;;;;;;;;7.00;5.00;;;;;22.68;77.00;99811.25;4900169;29;45748;-80
2021/06/21 00:18:38;;;;;;;;;5.25;5.00;;;;;22.49;76.97;99780.06;4900267;29;46329;-80
2021/06/21 00:21:05;;;;;;;;;6.00;5.25;;;;;22.68;77.08;99808.59;4899954;29;45784;-81
2021/06/21 00:23:30;;;;;;;;;6.00;6.00;;;;;22.51;77.20;99781.47;4900007;29;45748;-82
2021/06/21 00:25:56;;;;;;;;;6.25;6.25;;;;;22.68;77.15;99803.25;4882726;29;45632;-80
2021/06/21 00:28:21;;;;;;;;;7.25;7.25;;;;;22.56;77.60;99781.69;4900021;29;45469;-81
2021/06/21 00:30:47;;;;;;;;;7.50;6.25;;;;;22.54;76.95;99780.25;4899688;29;45801;-80
2021/06/21 00:33:13;;;;;;;;;6.75;6.75;;;;;22.66;77.41;99799.97;4899720;29;45504;-81
2021/06/21 00:35:39;;;;;;;;;9.75;9.25;;;;;22.74;77.51;99815.00;4901458;29;45429;-80
2021/06/21 00:38:05;;;;;;;;;6.25;6.25;;;;;22.62;77.21;99800.59;4886408;29;48673;-81
2021/06/21 00:43:52;;;;;;;;;7.50;7.00;;;;;22.64;76.82;99799.34;4903287;29;45850;-80
2021/06/21 00:46:18;;;;;;;;;6.00;6.00;;;;;22.60;77.00;99801.63;4887948;29;45967;-81
2021/06/21 00:48:43;;;;;;;;;7.75;7.00;;;;;22.66;77.09;99810.66;4903876;29;45673;-81
2021/06/21 00:51:09;;;;;;;;;6.25;6.00;;;;;22.69;77.26;99812.91;4900643;29;46403;-80
2021/06/21 00:53:35;;;;;;;;;5.00;5.00;;;;;22.65;77.52;99803.69;4900000;29;45705;-81
2021/06/21 00:56:01;;;;;;;;;6.25;5.00;;;;;22.52;77.32;99782.31;4882528;29;45860;-80
2021/06/21 00:58:27;;;;;;;;;5.50;4.25;;;;;22.60;76.96;99803.47;4899528;29;45675;-80
2021/06/21 01:00:52;;;;;;;;;6.50;6.25;;;;;22.54;77.00;99804.31;4899329;29;45858;-79
2021/06/21 01:03:18;;;;;;;;;6.75;5.00;;;;;22.59;77.06;99810.66;4899671;29;45662;-79
2021/06/21 01:05:44;;;;;;;;;4.00;4.00;;;;;22.41;77.04;99782.94;4899554;29;45873;-80
2021/06/21 01:08:10;;;;;;;;;4.00;4.00;;;;;22.60;77.35;99811.50;4899326;29;45590;-80
2021/06/21 01:14:04;;;;;;;;;11.50;9.25;;;;;22.57;77.28;99812.72;4899238;29;45534;-80
2021/06/21 01:16:46;;;;;;;;;5.75;5.00;;;;;22.57;77.49;99809.22;4881987;29;45530;-79
2021/06/21 01:19:26;;;;;;;;;7.00;7.00;;;;;22.56;76.93;99799.59;4899105;29;46782;-80
2021/06/21 01:22:04;;;;;;;;;7.00;6.75;;;;;22.55;76.93;99809.44;4898990;29;45611;-78
2021/06/21 01:24:54;;;;;;;;;8.00;7.25;;;;;22.54;76.96;99821.16;4899101;29;45643;-80
2021/06/21 01:27:25;;;;;;;;;7.25;7.25;;;;;22.53;77.57;99813.34;4899386;29;45804;-79
2021/06/21 01:30:04;;;;;;;;;7.00;6.50;;;;;22.52;76.99;99822.34;4881519;29;46573;-80
2021/06/21 01:32:44;;;;;;;;;8.75;8.00;;;;;22.49;77.58;99820.94;4898780;29;46210;-81
2021/06/21 01:35:19;;;;;;;;;8.00;8.00;;;;;22.30;77.39;99786.22;4898787;29;45509;-80
2021/06/21 01:37:47;;;;;;;;;8.00;8.00;;;;;22.45;77.09;99810.88;4899155;29;45691;-80
2021/06/21 01:40:17;;;;;;;;;10.75;9.75;;;;;22.47;77.54;99832.84;4898756;29;45585;-81
2021/06/21 01:42:48;;;;;;;;;8.50;8.50;;;;;22.43;76.83;99832.44;4898804;29;46203;-81
2021/06/21 01:45:16;;;;;;;;;9.00;8.00;;;;;22.37;77.14;99825.25;4898955;29;45777;-81
2021/06/21 01:47:46;;;;;;;;;8.50;8.00;;;;;22.32;77.36;99825.03;4898947;29;45541;-80
2021/06/21 01:50:14;;;;;;;;;10.50;9.00;;;;;22.31;77.29;99826.06;4898557;29;46610;-80
2021/06/21 01:52:43;;;;;;;;;9.25;9.00;;;;;22.17;77.37;99813.72;4898928;29;46115;-80
2021/06/21 01:55:12;;;;;;;;;8.25;8.00;;;;;22.22;77.59;99826.47;4899064;29;45674;-80
2021/06/21 01:57:40;;;;;;;;;9.00;8.75;;;;;22.00;77.89;99801.78;4898901;29;45497;-79
2021/06/21 02:00:08;;;;;;;;;9.00;8.00;;;;;21.97;77.14;99811.00;4898536;29;45613;-79
2021/06/21 02:02:36;;;;;;;;;7.25;6.25;;;;;22.02;77.05;99831.78;4898558;29;46144;-80
2021/06/21 02:05:04;;;;;;;;;7.00;6.50;;;;;21.88;76.65;99830.03;4898638;29;45533;-80
2021/06/21 02:07:32;;;;;;;;;6.00;5.25;;;;;21.76;76.92;99824.47;4898858;29;45665;-78
2021/06/21 02:09:59;;;;;;;;;5.00;5.00;;;;;21.50;76.81;99801.19;4904156;29;45692;-79
2021/06/21 02:12:28;;;;;;;;;4.50;4.00;;;;;21.70;77.11;99838.63;4905193;29;46260;-79
2021/06/21 02:14:56;;;;;;;;;3.50;3.25;;;;;21.68;76.88;99851.31;4905442;29;45633;-80
2021/06/21 02:17:26;;;;;;;;;5.25;4.25;;;;;21.60;77.00;99846.97;4903829;29;45628;-79
2021/06/21 02:19:53;;;;;;;;;4.00;3.00;;;;;21.55;77.07;99845.91;4898585;29;47071;-82
2021/06/21 02:22:21;;;;;;;;;2.25;2.00;;;;;21.47;76.85;99846.09;4898795;29;46138;-79
2021/06/21 02:24:47;;;;;;;;;3.25;3.25;;;;;21.24;76.54;99828.56;4898616;29;45618;-78
2021/06/21 02:27:15;;;;;;;;;3.75;2.50;;;;;21.26;76.57;99847.84;4898575;29;45829;-78
2021/06/21 02:29:42;;;;;;;;;2.50;2.50;;;;;21.21;77.01;99846.78;4898292;29;45676;-79
2021/06/21 02:32:08;;;;;;;;;4.25;3.00;;;;;21.08;76.84;99841.34;4898337;29;46224;-78
2021/06/21 02:34:33;;;;;;;;;3.00;3.00;;;;;21.12;76.73;99853.25;4898280;29;45706;-80
2021/06/21 02:36:58;;;;;;;;;4.00;3.50;;;;;21.10;76.72;99856.13;4898238;29;45550;-78
2021/06/21 02:39:24;;;;;;;;;3.00;3.00;;;;;21.09;76.77;99858.97;4897929;29;45518;-79
2021/06/21 02:41:49;;;;;;;;;2.75;2.00;;;;;20.99;76.59;99850.50;4898001;29;46157;-78
2021/06/21 02:44:15;;;;;;;;;4.25;2.50;;;;;20.91;76.98;99838.16;4898075;29;46154;-81
2021/06/21 02:46:40;;;;;;;;;2.75;2.75;;;;;20.90;76.71;99850.66;4898160;29;45558;-80
2021/06/21 02:49:06;;;;;;;;;4.25;3.50;;;;;20.91;77.25;99860.28;4897900;29;46469;-79
2021/06/21 02:51:47;;;;;;;;;3.00;2.75;;;;;20.86;77.12;99861.88;4898120;29;45757;-79
2021/06/21 03:01:00;;;;;;;;;5.00;4.00;;;;;20.66;76.96;99859.06;4897401;29;46049;-78
2021/06/21 03:03:31;;;;;;;;;5.00;4.25;;;;;20.61;77.21;99858.84;4897965;29;45535;-79
2021/06/21 03:05:59;;;;;;;;;2.50;2.00;;;;;20.54;77.23;99857.94;4897732;29;45608;-80
2021/06/21 03:08:27;;;;;;;;;3.75;3.25;;;;;20.43;77.13;99856.63;4897737;29;45628;-81
2021/06/21 03:10:56;;;;;;;;;5.00;5.00;;;;;20.46;76.87;99874.84;4897498;29;46314;-80
2021/06/21 03:13:22;;;;;;;;;4.00;4.00;;;;;20.46;77.35;99871.38;4897758;29;45800;-81
2021/06/21 03:15:52;;;;;;;;;4.00;4.00;;;;;20.30;77.71;99851.13;4897351;29;45661;-77
2021/06/21 03:18:21;;;;;;;;;4.00;4.00;;;;;20.47;77.37;99871.19;4897651;29;45503;-81
2021/06/21 03:20:59;;;;;;;;;5.00;4.75;;;;;20.44;77.46;99879.56;4897292;29;45958;-79
2021/06/21 03:23:26;;;;;;;;;5.50;5.00;;;;;20.40;77.57;99878.31;4897707;29;46190;-79
2021/06/21 03:25:53;;;;;;;;;5.25;5.00;;;;;20.26;77.68;99854.38;4896914;29;45484;-79
2021/06/21 03:28:19;;;;;;;;;7.00;6.00;;;;;20.35;77.48;99874.56;4897706;29;45537;-80
2021/06/21 03:30:55;;;;;;;;;6.00;5.00;;;;;20.26;77.66;99867.66;4897202;29;46118;-79
2021/06/21 03:33:21;;;;;;;;;6.00;5.50;;;;;20.22;77.55;99855.75;4897386;29;46045;-80
2021/06/21 03:35:47;;;;;;;;;5.50;4.75;;;;;20.21;77.55;99856.78;4900841;29;45692;-80
2021/06/21 03:38:21;;;;;;;;;5.00;5.00;;;;;20.28;77.63;99871.81;4901106;29;45627;-79
2021/06/21 03:40:50;;;;;;;;;5.50;5.50;;;;;20.17;77.71;99856.34;4902506;29;46535;-80
2021/06/21 03:43:21;;;;;;;;;5.75;5.00;;;;;19.98;77.84;99822.38;4903607;29;48146;-80
2021/06/21 03:45:48;;;;;;;;;6.00;5.00;;;;;20.17;77.83;99860.84;4904835;29;45585;-80
2021/06/21 03:48:14;;;;;;;;;5.00;5.00;;;;;20.10;77.90;99850.94;4904516;29;45596;-80
2021/06/21 03:50:39;;;;;;;;;6.00;5.00;;;;;20.21;77.83;99876.22;4900759;29;45432;-80
2021/06/21 03:53:06;;;;;;;;;5.25;5.25;;;;;20.20;77.94;99879.88;4900739;29;46226;-80
2021/06/21 03:55:33;;;;;;;;;6.00;5.25;;;;;20.10;77.95;99871.41;4900480;29;45549;-82
2021/06/21 03:57:59;;;;;;;;;7.25;6.25;;;;;20.15;77.87;99889.44;4900978;29;45564;-83
2021/06/21 04:00:27;;;;;;;;;6.00;5.00;;;;;20.04;77.77;99865.00;4900933;29;45807;-82
2021/06/21 04:02:53;;;;;;;;;5.75;5.50;;;;;20.05;77.93;99868.47;4885541;29;48647;-82
2021/06/21 04:05:19;;;;;;;;;4.00;4.00;;;;;20.04;77.63;99880.13;4884616;29;45638;-82
2021/06/21 04:07:46;;;;;;;;;5.00;5.00;;;;;19.99;77.69;99877.22;4901642;29;45537;-81
2021/06/21 04:10:14;;;;;;;;;5.75;5.75;;;;;20.06;77.94;99872.78;4901094;29;45727;-81
2021/06/21 04:12:40;;;;;;;;;6.00;5.00;;;;;20.09;78.19;99889.19;4900799;29;45870;-83
2021/06/21 04:15:08;;;;;;;;;5.00;4.75;;;;;20.09;77.59;99886.53;4900074;29;45705;-82
2021/06/21 04:17:36;;;;;;;;;4.00;4.00;;;;;20.03;77.82;99879.28;4883449;29;45576;-82
2021/06/21 04:20:04;;;;;;;;;6.00;6.00;;;;;20.04;78.09;99888.94;4900191;29;46376;-82
2021/06/21 04:22:29;;;;;;;;;6.00;6.00;;;;;20.11;77.98;99902.31;4900332;29;46264;-81
2021/06/21 04:24:54;;;;;;;;;5.75;5.00;;;;;20.11;77.99;99902.31;4900257;29;45672;-82
2021/06/21 04:30:44;;;;;;;;;5.00;5.00;;;;;20.03;78.10;99892.59;4900544;29;45493;-81
2021/06/21 04:33:09;;;;;;;;;7.75;6.50;;;;;19.99;78.05;99878.03;4900251;29;46158;-82
2021/06/21 04:35:34;;;;;;;;;5.50;5.25;;;;;19.99;77.79;99878.03;4900022;29;45670;-81
2021/06/21 04:38:00;;;;;;;;;5.75;5.00;;;;;20.13;78.03;99894.16;4900335;29;45631;-80
2021/06/21 04:40:30;;;;;;;;;5.25;5.00;;;;;20.15;77.78;99889.44;4899559;29;45631;-81
2021/06/21 04:42:56;;;;;;;;;7.00;6.25;;;;;20.07;78.06;99883.25;4899760;29;46073;-81
2021/06/21 04:45:22;;;;;;;;;5.25;5.25;;;;;20.23;78.02;99908.78;4898870;29;45466;-80
2021/06/21 04:47:47;;;;;;;;;5.50;5.50;;;;;20.07;77.91;99885.91;4882574;29;46032;-82
2021/06/21 04:50:16;;;;;;;;;6.50;6.00;;;;;20.13;77.71;99896.81;4899549;29;45690;-83
2021/06/21 04:52:46;;;;;;;;;5.00;4.25;;;;;20.20;77.88;99900.34;4882475;29;47063;-82
2021/06/21 05:01:31;;;;;;;;;7.00;5.75;;;;;19.87;77.65;99858.25;4899942;29;45706;-82
2021/06/21 05:04:04;;;;;;;;;7.00;6.75;;;;;19.95;77.89;99867.97;4900334;29;46191;-84
2021/06/21 05:06:37;;;;;;;;;6.00;6.00;;;;;20.13;77.72;99900.28;4900993;29;45600;-82
2021/06/21 05:09:07;;;;;;;;;6.75;6.75;;;;;20.18;77.80;99913.03;4901309;29;45793;-84
2021/06/21 05:11:33;;;;;;;;;17.50;16.00;;;;;20.33;77.72;99935.13;4884016;29;48455;-84
2021/06/21 05:13:59;;;;;;;;;7.00;6.25;;;;;20.36;77.92;99942.72;4905392;29;46133;-83
2021/06/21 05:16:25;;;;;;;;;6.75;6.75;;;;;20.21;78.12;99913.47;4888771;29;45641;-83
2021/06/21 05:18:50;;;;;;;;;6.25;6.25;;;;;20.08;77.82;99902.69;4905947;29;45896;-81
2021/06/21 05:21:16;;;;;;;;;6.50;5.50;;;;;20.30;77.83;99938.09;4887174;29;47453;-81
2021/06/21 05:23:41;;;;;;;;;7.00;5.75;;;;;20.11;77.87;99907.63;4899858;29;45715;-82
2021/06/21 05:26:07;;;;;;;;;8.25;8.00;;;;;20.26;77.81;99937.66;4899338;29;45677;-82
2021/06/21 05:28:32;;;;;;;;;5.75;5.75;;;;;20.13;77.95;99924.22;4899625;29;45717;-82
2021/06/21 05:30:57;;;;;;;;;15.00;14.50;;;;;20.10;77.94;99922.75;4899351;29;45681;-83
2021/06/21 05:33:23;;;;;;;;;9.25;9.25;;;;;20.17;77.84;99940.63;4899298;29;46407;-81
2021/06/21 05:35:49;;;;;;;;;8.50;8.50;;;;;19.87;77.93;99900.78;4899482;29;45713;-82
2021/06/21 05:38:14;;;;;;;;;8.00;7.25;;;;;19.91;77.44;99911.91;4899502;29;45651;-82
2021/06/21 05:40:40;;;;;;;;;8.00;7.75;;;;;20.11;78.11;99947.53;4899016;29;45844;-82
2021/06/21 05:43:05;;;;;;;;;7.00;7.00;;;;;19.97;77.93;99930.56;4881727;29;46982;-81
2021/06/21 05:45:30;;;;;;;;;7.75;6.75;;;;;19.89;77.85;99914.72;4881766;29;45591;-80
2021/06/21 05:47:56;;;;;;;;;11.00;9.25;;;;;20.11;77.71;99947.53;4899217;29;45755;-83
2021/06/21 05:50:21;;;;;;;;;7.00;6.75;;;;;19.92;77.91;99917.00;4881749;29;48829;-85
2021/06/21 05:52:59;;;;;;;;;15.25;14.25;;;;;19.76;77.50;99895.16;4899265;29;46147;-83
2021/06/21 05:55:25;;;;;;;;;7.25;7.00;;;;;20.04;77.82;99942.13;4882116;29;45940;-83
2021/06/21 05:57:54;;;;;;;;;8.00;8.00;;;;;20.10;78.06;99957.34;4898705;29;45665;-83
2021/06/21 06:00:24;;;;;;;;;11.50;10.00;;;;;20.15;77.81;99967.41;4898676;29;45627;-82
2021/06/21 06:02:50;;;;;;;;;6.00;6.00;;;;;20.22;77.82;99978.13;4881714;29;47383;-82
2021/06/21 06:05:17;;;;;;;;;6.25;6.25;;;;;20.23;77.68;99979.78;4885196;29;45593;-86
2021/06/21 06:07:42;;;;;;;;;8.75;7.00;;;;;20.11;77.37;99963.47;4905588;29;45846;-86
2021/06/21 06:10:09;;;;;;;;;6.00;5.75;;;;;19.97;77.59;99930.56;4902767;29;46536;-87
2021/06/21 06:12:35;;;;;;;;;7.00;6.00;;;;;20.23;77.55;99977.13;4902092;29;46626;-85
2021/06/21 06:15:12;;;;;;;;;7.75;6.75;;;;;20.36;77.69;99998.59;4900716;29;45534;-86
2021/06/21 06:17:47;;;;;;;;;8.00;7.25;;;;;20.05;77.39;99934.97;4884194;29;45593;-85
2021/06/21 06:20:16;;;;;;;;;7.50;6.00;;;;;20.29;77.69;99977.22;4901312;29;45620;-85
2021/06/21 06:22:42;;;;;;;;;5.75;5.75;;;;;20.28;77.49;99972.91;4901268;29;46060;-82
2021/06/21 06:25:08;;;;;;;;;7.00;7.00;;;;;20.42;77.63;99993.34;4899291;29;45743;-87
2021/06/21 06:27:34;;;;;;;;;8.75;8.00;;;;;20.44;77.43;99999.31;4900622;29;45784;-83
2021/06/21 06:30:00;;;;;;;;;8.25;6.75;;;;;20.46;77.33;100001.78;4901114;29;46424;-84
2021/06/21 06:32:25;;;;;;;;;6.50;6.50;;;;;20.30;77.24;99965.53;4899471;29;45599;-87
2021/06/21 06:34:50;;;;;;;;;8.75;8.00;;;;;20.43;76.92;99987.03;4900257;29;45958;-90
2021/06/21 06:37:16;;;;;;;;;7.50;7.00;;;;;20.37;77.18;99979.78;4887083;29;45436;-85
2021/06/21 06:39:41;;;;;;;;;5.00;5.00;;;;;20.46;77.24;99977.81;4902375;29;45515;-86
2021/06/21 06:42:07;;;;;;;;;5.25;5.25;;;;;20.46;77.09;99970.66;4904931;29;45658;-84
2021/06/21 06:44:32;;;;;;;;;6.00;6.00;;;;;20.31;76.98;99945.09;4904040;29;45569;-81
2021/06/21 06:46:58;;;;;;;;;6.50;6.00;;;;;20.54;77.03;99977.72;4907685;29;45603;-83
2021/06/21 06:49:23;;;;;;;;;5.00;4.75;;;;;20.57;77.16;99974.66;4890844;29;47600;-88
2021/06/21 06:51:54;;;;;;;;;5.75;5.00;;;;;20.46;76.98;99948.53;4906992;29;45498;-85
2021/06/21 06:57:01;;;;;;;;;6.25;6.25;;;;;20.65;77.07;99973.72;4904685;29;45477;-87
2021/06/21 06:59:28;;;;;;;;;6.00;5.00;;;;;20.74;76.71;99989.38;4882191;29;47709;-84
2021/06/21 07:01:54;;;;;;;;;7.25;6.75;;;;;20.69;76.31;99975.81;4881374;29;47454;-86
2021/06/21 07:04:22;;;;;;;;;5.75;5.00;;;;;20.34;76.42;99918.16;4883221;29;45691;-83
2021/06/21 07:06:51;;;;;;;;;5.00;5.00;;;;;20.83;76.45;100000.75;4882706;29;45506;-88
2021/06/21 07:09:18;;;;;;;;;5.25;5.25;;;;;20.62;75.36;99966.13;4883062;29;45669;-89
2021/06/21 07:11:50;;;;;;;;;6.00;6.00;;;;;20.73;75.72;99986.94;4900942;29;46131;-85
2021/06/21 07:14:18;;;;;;;;;6.00;5.75;;;;;20.53;75.50;99960.09;4883444;29;45743;-89
2021/06/21 07:16:48;;;;;;;;;5.75;5.50;;;;;20.67;75.50;99991.19;4901942;29;45636;-87
2021/06/21 07:19:18;;;;;;;;;6.50;5.25;;;;;20.63;75.41;99981.91;4884680;29;48095;-85
2021/06/21 07:21:44;;;;;;;;;5.00;5.00;;;;;20.73;75.66;99998.38;4900145;29;46484;-86
2021/06/21 07:24:10;;;;;;;;;6.50;6.00;;;;;20.83;75.61;100004.25;4901385;29;45518;-84
2021/06/21 07:26:39;;;;;;;;;5.75;5.25;;;;;20.84;75.35;100005.03;4903245;29;45509;-85
2021/06/21 07:29:05;;;;;;;;;5.00;5.00;;;;;20.61;75.34;99978.63;4888975;29;47426;-80
2021/06/21 07:31:33;;;;;;;;;10.75;9.75;;;;;20.79;75.53;99999.47;4908047;29;45601;-81
2021/06/21 07:33:59;;;;;;;;;5.25;5.25;;;;;20.85;75.46;100009.34;4887943;29;45760;-81
2021/06/21 07:36:25;;;;;;;;;6.00;6.00;;;;;20.85;75.17;100007.53;4910531;29;45533;-82
2021/06/21 07:38:51;;;;;;;;;6.00;6.00;;;;;20.97;75.15;100018.50;4910213;29;45834;-82
2021/06/21 07:41:16;;;;;;;;;7.00;6.00;;;;;21.01;74.98;100037.56;4907652;29;45908;-81
2021/06/21 07:47:17;;;;;;;;;6.25;6.25;;;;;21.02;74.63;100026.75;4901256;29;45600;-81
2021/06/21 07:49:43;;;;;;;;;6.00;6.00;;;;;21.03;74.81;100039.06;4900985;29;45536;-81
2021/06/21 07:52:08;;;;;;;;;6.00;5.25;;;;;21.00;74.81;100041.28;4901711;29;45469;-82
2021/06/21 07:54:34;;;;;;;;;4.00;4.00;;;;;21.05;74.65;100039.69;4902502;29;45417;-83
2021/06/21 07:56:59;;;;;;;;;3.25;3.25;;;;;21.05;74.48;100034.38;4902892;29;45537;-82
2021/06/21 07:59:25;;;;;;;;;2.25;2.25;;;;;20.82;74.12;100010.59;4887060;29;46657;-79
2021/06/21 08:01:51;;;;;;;;;4.00;3.50;;;;;21.07;74.19;100040.31;4906776;29;45646;-80
2021/06/21 08:04:16;;;;;;;;;3.50;3.50;;;;;20.91;74.27;100014.75;4889930;29;45321;-82
2021/06/21 08:06:41;;;;;;;;;6.25;3.25;;;;;20.88;73.50;100006.34;4907154;29;45264;-83
2021/06/21 08:09:07;;;;;;;;;3.00;3.00;;;;;21.13;73.49;100047.53;4885190;29;47960;-83
2021/06/21 08:11:32;;;;;;;;;2.00;2.00;;;;;21.11;72.63;100044.25;4901311;29;46244;-81
2021/06/21 08:13:58;;;;;;;;;2.75;2.00;;;;;21.15;72.42;100050.06;4902487;29;45668;-82
2021/06/21 08:16:23;;;;;;;;;1.50;1.50;;;;;21.12;72.23;100043.22;4902683;29;45651;-83
2021/06/21 08:18:51;;;;;;;;;1.75;1.50;;;;;21.01;71.47;100027.75;4902952;29;46001;-81
2021/06/21 08:21:18;;;;;;;;;2.50;2.00;;;;;21.18;71.84;100057.66;4906150;29;46276;-81
2021/06/21 08:23:45;;;;;;;;;2.00;2.00;;;;;21.17;71.38;100048.00;4908105;29;45741;-84
2021/06/21 08:26:12;;;;;;;;;2.00;1.00;;;;;21.18;71.41;100033.69;4907857;29;45524;-84
2021/06/21 08:31:59;;;;;;;;;1.00;1.00;;;;;21.35;71.20;100062.53;4903477;29;45527;-80
2021/06/21 08:34:24;;;;;;;;;2.75;1.75;;;;;21.38;70.58;100052.53;4884879;29;45525;-90
2021/06/21 08:36:51;;;;;;;;;2.00;2.00;;;;;21.32;70.44;100041.59;4886686;29;45664;-83
2021/06/21 08:39:17;;;;;;;;;1.00;1.00;;;;;21.39;69.74;100052.31;4902957;29;45707;-82
2021/06/21 08:41:42;;;;;;;;;1.00;1.00;;;;;21.44;67.43;100054.41;4902350;29;46230;-90
2021/06/21 08:44:08;;;;;;;;;0.75;0.75;;;;;21.32;68.19;100033.59;4902703;29;45708;-85
2021/06/21 08:46:36;;;;;;;;;2.00;1.00;;;;;21.37;67.17;100048.19;4902738;29;45682;-84
2021/06/21 08:49:03;;;;;;;;;2.00;1.00;;;;;21.34;65.75;100036.06;4902368;29;45498;-83
2021/06/21 08:51:34;;;;;;;;;1.00;1.00;;;;;21.27;66.02;100036.00;4907260;29;45787;-87
2021/06/21 08:54:00;;;;;;;;;1.25;1.00;;;;;21.24;66.94;100028.41;4886662;29;45548;-84
2021/06/21 08:56:28;;;;;;;;;2.50;1.00;;;;;21.32;66.60;100038.91;4887769;29;45792;-85
2021/06/21 09:02:15;;;;;;;;;1.00;1.00;;;;;21.22;67.86;100010.94;4905497;29;45780;-87
2021/06/21 09:04:41;;;;;;;;;1.25;1.00;;;;;21.49;67.69;100050.13;4904732;29;45526;-83
2021/06/21 09:07:16;;;;;;;;;1.25;1.00;;;;;21.59;66.71;100055.16;4905049;29;45536;-90
2021/06/21 09:09:44;;;;;;;;;1.00;1.00;;;;;21.24;67.12;99999.09;4888156;29;47358;-86
2021/06/21 09:12:10;;;;;;;;;2.00;1.75;;;;;21.39;67.83;100014.16;4888522;29;47270;-80
2021/06/21 09:14:37;;;;;;;;;2.00;2.00;;;;;21.69;67.37;100060.97;4904829;29;45698;-81
2021/06/21 09:17:08;;;;;;;;;1.50;1.50;;;;;21.68;66.81;100060.13;4887493;29;45969;-85
2021/06/21 09:20:04;;;;;;;;;1.00;1.00;;;;;21.74;66.74;100056.69;4904435;29;45738;-87
2021/06/21 09:22:39;;;;;;;;;1.00;0.50;;;;;21.81;66.30;100064.72;4904060;29;47275;-86
2021/06/21 09:25:17;;;;;;;;;1.00;1.00;;;;;21.84;66.35;100063.53;4903403;29;45507;-82
2021/06/21 09:27:57;;;;;;;;;1.00;1.00;;;;;21.87;66.97;100071.94;4904782;29;45589;-83
2021/06/21 09:30:22;;;;;;;;;1.75;1.00;;;;;21.92;66.56;100071.34;4904499;29;46378;-86
2021/06/21 09:32:51;;;;;;;;;2.00;0.75;;;;;21.87;66.22;100058.59;4887164;29;48122;-87
2021/06/21 09:35:43;;;;;;;;;1.00;1.00;;;;;21.91;65.87;100072.41;4904782;29;45616;-83
2021/06/21 09:38:15;;;;;;;;;1.00;0.75;;;;;21.96;65.40;100086.00;4899358;29;45481;-84
2021/06/21 09:40:55;;;;;;;;;0.75;0.75;;;;;21.98;63.88;100075.94;4887186;29;48730;-84
2021/06/21 09:43:45;;;;;;;;;1.00;1.00;;;;;22.01;64.80;100089.75;4905785;29;45923;-89
2021/06/21 09:46:15;;;;;;;;;2.00;2.00;;;;;22.05;64.43;100085.66;4908967;29;45538;-81
2021/06/21 09:48:46;;;;;;;;;2.00;1.75;;;;;21.94;65.02;100066.66;4906880;29;45563;-81
2021/06/21 09:51:19;;;;;;;;;1.00;1.00;;;;;22.05;64.53;100071.47;4905984;29;46307;-82
2021/06/21 09:54:08;;;;;;;;;1.00;1.00;;;;;22.10;64.61;100077.06;4907265;29;46149;-82
2021/06/21 09:59:37;;;;;;;;;1.00;0.75;;;;;22.24;65.27;100091.31;4848735;29;45634;-85
2021/06/21 10:02:03;;;;;;;;;1.00;1.00;;;;;22.32;65.30;100099.97;4849090;29;45760;-80
2021/06/21 10:04:28;;;;;;;;;1.00;1.00;;;;;22.36;65.33;100098.53;4847901;29;45697;-84
2021/06/21 10:06:54;;;;;;;;;1.50;1.00;;;;;22.41;65.41;100100.63;4845702;29;45549;-83
2021/06/21 10:09:20;;;;;;;;;1.00;1.00;;;;;22.37;64.65;100089.53;4828738;29;45688;-80
2021/06/21 10:11:46;;;;;;;;;2.00;2.00;;;;;22.54;64.63;100109.53;4844144;29;45830;-87
2021/06/21 10:14:17;;;;;;;;;3.75;2.50;;;;;22.50;64.71;100088.78;4845523;29;46318;-84
2021/06/21 10:16:46;;;;;;;;;1.00;1.00;;;;;22.60;63.35;100102.56;4845525;29;45628;-86
2021/06/21 10:19:13;;;;;;;;;1.00;1.00;;;;;22.67;63.16;100113.28;4830307;29;45610;-85
2021/06/21 10:21:42;;;;;;;;;1.25;1.00;;;;;22.74;63.75;100112.31;4848748;29;45656;-84
2021/06/21 10:24:08;;;;;;;;;0.00;0.00;;;;;22.76;62.83;100107.59;4848621;29;45839;-86
2021/06/21 10:26:38;;;;;;;;;0.00;0.00;;;;;22.85;62.45;100113.56;4848528;29;45726;-88
2021/06/21 10:29:04;;;;;;;;;1.00;1.00;;;;;22.88;62.18;100115.88;4844869;29;45721;-84
2021/06/21 10:31:31;;;;;;;;;2.00;1.75;;;;;22.85;61.01;100098.38;4847144;29;46901;-83
2021/06/21 10:33:58;;;;;;;;;1.25;1.25;;;;;22.86;61.37;100091.19;4884780;29;45763;-83
2021/06/21 10:36:40;;;;;;;;;1.00;1.00;;;;;22.86;60.95;100085.84;4902227;29;45682;-81
2021/06/21 10:39:09;;;;;;;;;0.25;0.25;;;;;22.96;60.65;100095.13;4900275;29;45765;-80
2021/06/21 10:41:34;;;;;;;;;1.00;1.00;;;;;23.02;61.21;100101.50;4902003;29;46370;-82
2021/06/21 10:43:59;;;;;;;;;1.25;1.00;;;;;23.07;60.91;100106.22;4902875;29;45783;-82
2021/06/21 10:46:29;;;;;;;;;1.00;1.00;;;;;23.03;61.36;100087.13;4906444;29;45576;-80
2021/06/21 10:49:41;;;;;;;;;0.25;0.25;;;;;23.11;61.87;100094.09;4905521;29;45547;-82
2021/06/21 10:52:36;;;;;;;;;1.00;1.00;;;;;23.18;61.38;100102.97;4828553;29;45988;-81
2021/06/21 10:55:20;;;;;;;;;1.00;1.00;;;;;23.25;61.59;100106.50;4828074;29;46416;-85
2021/06/21 11:01:14;;;;;;;;;1.00;1.00;;;;;23.36;61.98;100105.88;4836297;29;45578;-92
2021/06/21 11:03:41;;;;;;;;;1.75;1.00;;;;;23.39;61.76;100098.28;4836173;29;47662;-89
2021/06/21 11:06:33;;;;;;;;;0.00;0.00;;;;;23.38;61.32;100096.63;4815985;29;47063;-87
2021/06/21 11:08:59;;;;;;;;;1.00;1.00;;;;;23.41;61.11;100096.22;4755826;29;45885;-83
2021/06/21 11:11:44;;;;;;;;;1.00;0.75;;;;;23.39;60.67;100092.91;4745688;29;45828;-85
2021/06/21 11:17:33;;;;;;;;;1.00;1.00;;;;;23.36;61.06;100066.59;4759093;29;46056;-81
2021/06/21 11:20:37;;;;;;;;;2.00;2.00;;;;;23.56;60.93;100097.91;4753934;29;45667;-80
2021/06/21 11:23:09;;;;;;;;;1.00;1.00;;;;;23.54;60.80;100084.72;4758055;29;45579;-84
2021/06/21 11:25:49;;;;;;;;;0.00;0.00;;;;;23.64;60.38;100095.03;4763270;29;46059;-89
2021/06/21 11:28:38;;;;;;;;;1.25;1.00;;;;;23.67;60.35;100089.25;4772312;29;46000;-83
2021/06/21 11:31:23;;;;;;;;;1.00;1.00;;;;;23.68;59.87;100091.72;4798709;29;45652;-80
2021/06/21 11:33:53;;;;;;;;;0.25;0.00;;;;;23.71;60.03;100088.63;4815576;29;46002;-82
2021/06/21 11:36:40;;;;;;;;;1.00;1.00;;;;;23.67;59.81;100071.34;4816755;29;47846;-83
2021/06/21 11:39:30;;;;;;;;;1.00;1.00;;;;;23.77;59.54;100090.47;4818035;29;46507;-85
2021/06/21 11:44:50;;;;;;;;;0.25;0.25;;;;;23.79;59.49;100088.44;4821845;29;45669;-84
2021/06/21 11:47:30;;;;;;;;;1.00;1.00;;;;;23.73;59.72;100073.22;4913291;29;46321;-86
2021/06/21 11:50:08;;;;;;;;;1.00;1.00;;;;;23.75;58.89;100073.81;4912154;29;46132;-85
2021/06/21 11:52:34;;;;;;;;;1.25;1.00;;;;;23.84;59.14;100087.81;4918906;29;45589;-81
2021/06/21 11:55:17;;;;;;;;;2.00;1.50;;;;;23.83;59.47;100078.13;4919135;29;45500;-83
2021/06/21 12:01:19;;;;;;;;;1.50;1.00;;;;;23.97;59.49;100078.94;4918414;29;45656;-81
2021/06/21 12:03:44;;;;;;;;;1.00;1.00;;;;;24.02;59.81;100092.53;4902355;29;45389;-84
2021/06/21 12:06:17;;;;;;;;;1.00;1.00;;;;;24.03;59.15;100084.25;4911902;29;45266;-82
2021/06/21 12:08:44;;;;;;;;;2.50;2.00;;;;;24.06;59.55;100083.88;4908408;29;46929;-80
2021/06/21 12:11:30;;;;;;;;;1.25;1.00;;;;;24.14;59.46;100080.94;4907188;29;45478;-81
2021/06/21 12:17:23;;;;;;;;;1.75;1.50;;;;;24.21;59.23;100059.53;4903215;29;45654;-80
2021/06/21 12:20:15;;;;;;;;;1.00;1.00;;;;;24.31;58.60;100065.28;4888344;29;45718;-80
2021/06/21 12:22:54;;;;;;;;;0.00;0.00;;;;;24.32;57.95;100052.72;4902467;29;46138;-81
2021/06/21 12:25:30;;;;;;;;;1.00;1.00;;;;;24.41;58.00;100054.94;4901928;29;45644;-79
2021/06/21 12:28:15;;;;;;;;;2.00;1.00;;;;;24.44;57.57;100057.22;4902200;29;45603;-80
2021/06/21 12:30:49;;;;;;;;;1.50;1.00;;;;;24.48;57.54;100050.38;4904912;29;45910;-80
2021/06/21 12:33:23;;;;;;;;;2.00;1.00;;;;;24.53;57.77;100055.09;4887427;29;46550;-82
2021/06/21 12:36:08;;;;;;;;;1.00;1.00;;;;;24.58;57.92;100050.75;4905509;29;45679;-78
2021/06/21 12:38:40;;;;;;;;;0.00;0.00;;;;;24.62;57.63;100051.13;4906202;29;45562;-79